Time;durP1;ratioP1;P1;durP2;ratioP2;P2;SDS_P1;SDS_P2;PMS_P1;PMS_P2;Temp;Humidity;BMP_temperature;BMP_pressure;BME280_temperature;BME280_humidity;BME280_pressure;Samples;Min_cycle;Max_cycle;Signal;HPM_P1;HPM_P2
2023/04/17 00:02:21;;;;;;;0.63;0.20;;;9.80;88.20;;;;;;5028227;28;20037;-72
2023/04/17 00:04:47;;;;;;;0.28;0.20;;;9.90;85.30;;;;;;5035407;28;20086;-72
2023/04/17 00:07:13;;;;;;;1.20;0.40;;;10.00;83.30;;;;;;5027733;28;20438;-72
2023/04/17 00:09:38;;;;;;;0.08;0.05;;;9.90;82.80;;;;;;5029020;28;20033;-72
2023/04/17 00:12:04;;;;;;;0.50;0.30;;;9.90;83.10;;;;;;5030888;28;20071;-72
2023/04/17 00:14:30;;;;;;;0.98;0.30;;;10.00;82.50;;;;;;5034986;28;20049;-73
2023/04/17 00:16:56;;;;;;;1.05;0.30;;;10.00;82.10;;;;;;5030545;28;20021;-72
2023/04/17 00:19:21;;;;;;;1.23;0.17;;;9.90;82.10;;;;;;5045395;28;20031;-73
2023/04/17 00:21:47;;;;;;;0.47;0.30;;;9.80;82.50;;;;;;5032605;28;20028;-72
2023/04/17 00:24:13;;;;;;;0.70;0.17;;;10.00;82.80;;;;;;5028472;28;20033;-72
2023/04/17 00:26:38;;;;;;;0.85;0.40;;;10.00;82.30;;;;;;5035725;28;20113;-73
2023/04/17 00:29:04;;;;;;;0.77;0.38;;;9.90;82.50;;;;;;5029432;28;20108;-73
2023/04/17 00:31:30;;;;;;;0.73;0.30;;;10.00;81.60;;;;;;5035609;28;20027;-72
2023/04/17 00:33:57;;;;;;;0.95;0.45;;;10.00;81.80;;;;;;5042501;28;20109;-73
2023/04/17 00:36:23;;;;;;;0.60;0.30;;;10.00;81.90;;;;;;5028716;28;20394;-72
2023/04/17 00:38:49;;;;;;;0.10;0.05;;;10.10;81.80;;;;;;5039618;28;20035;-72
2023/04/17 00:41:15;;;;;;;0.60;0.25;;;10.20;82.20;;;;;;5036632;28;20037;-73
2023/04/17 00:43:40;;;;;;;0.68;0.17;;;10.30;81.60;;;;;;5039201;28;20065;-72
2023/04/17 00:46:07;;;;;;;0.38;0.30;;;10.30;81.50;;;;;;5032917;28;20034;-73
2023/04/17 00:48:33;;;;;;;0.38;0.30;;;10.30;82.00;;;;;;5045244;28;20029;-72
2023/04/17 00:51:01;;;;;;;0.70;0.20;;;10.30;82.30;;;;;;5030649;28;20498;-73
2023/04/17 00:53:31;;;;;;;0.52;0.35;;;10.50;81.40;;;;;;5039947;28;20032;-72
2023/04/17 00:56:05;;;;;;;1.83;0.38;;;10.40;81.10;;;;;;5032035;28;20029;-72
2023/04/17 00:58:31;;;;;;;3.80;0.30;;;10.30;81.00;;;;;;5042896;28;20056;-73
2023/04/17 01:00:58;;;;;;;0.63;0.40;;;10.20;81.00;;;;;;5040041;28;20419;-73
2023/04/17 01:03:24;;;;;;;0.45;0.10;;;10.20;80.80;;;;;;5040731;28;20021;-72
2023/04/17 01:05:51;;;;;;;0.45;0.20;;;10.10;81.80;;;;;;5036282;28;20068;-73
2023/04/17 01:08:17;;;;;;;1.27;0.30;;;10.10;81.20;;;;;;5036946;28;20052;-72
2023/04/17 01:10:43;;;;;;;0.15;0.13;;;10.30;80.60;;;;;;5042042;28;20041;-72
2023/04/17 01:13:10;;;;;;;0.10;0.00;;;10.20;81.30;;;;;;5031094;28;20026;-72
2023/04/17 01:15:36;;;;;;;0.63;0.30;;;10.00;81.50;;;;;;5032705;28;20387;-72
2023/04/17 01:18:02;;;;;;;0.60;0.17;;;10.40;80.90;;;;;;5042336;28;20041;-72
2023/04/17 01:20:31;;;;;;;0.80;0.15;;;10.10;81.30;;;;;;5041703;28;20047;-72
2023/04/17 01:22:58;;;;;;;2.63;0.30;;;10.10;81.20;;;;;;5031446;28;20035;-73
2023/04/17 01:25:24;;;;;;;0.82;0.35;;;10.20;81.10;;;;;;5033154;28;20483;-73
2023/04/17 01:27:50;;;;;;;0.88;0.38;;;10.10;81.30;;;;;;5043587;28;20041;-73
2023/04/17 01:30:16;;;;;;;0.75;0.22;;;10.30;80.80;;;;;;5035039;28;20048;-73
2023/04/17 01:32:41;;;;;;;0.13;0.05;;;10.30;80.60;;;;;;5047246;28;20025;-72
2023/04/17 01:35:08;;;;;;;0.38;0.25;;;10.60;79.80;;;;;;5038107;28;20883;-72
2023/04/17 01:37:33;;;;;;;0.25;0.10;;;10.50;80.40;;;;;;5034523;28;20036;-73
2023/04/17 01:39:59;;;;;;;0.32;0.15;;;10.30;80.60;;;;;;5037538;28;20029;-72
2023/04/17 01:42:25;;;;;;;0.50;0.17;;;10.40;80.30;;;;;;5037015;28;20485;-73
2023/04/17 01:44:51;;;;;;;0.70;0.30;;;10.30;81.70;;;;;;5038248;28;20368;-73
2023/04/17 01:47:17;;;;;;;0.22;0.10;;;10.60;79.60;;;;;;5046497;28;20033;-73
2023/04/17 01:49:42;;;;;;;0.63;0.28;;;10.60;79.80;;;;;;5036002;28;20040;-73
2023/04/17 01:52:08;;;;;;;0.52;0.20;;;10.70;79.50;;;;;;5040850;28;20474;-74
2023/04/17 01:54:34;;;;;;;0.68;0.20;;;10.80;79.00;;;;;;5042681;28;20462;-74
2023/04/17 01:57:00;;;;;;;1.45;0.13;;;10.80;79.40;;;;;;5043119;28;20423;-72
2023/04/17 01:59:26;;;;;;;0.47;0.30;;;10.70;79.60;;;;;;5031995;28;20048;-72
2023/04/17 02:01:53;;;;;;;0.20;0.20;;;10.80;79.20;;;;;;5037002;28;20021;-73
2023/04/17 02:04:19;;;;;;;1.33;0.30;;;11.00;78.10;;;;;;5046301;28;20022;-73
2023/04/17 02:06:44;;;;;;;1.05;0.20;;;10.80;79.40;;;;;;5038392;28;20079;-72
2023/04/17 02:09:10;;;;;;;1.00;0.13;;;10.80;79.10;;;;;;5040974;28;20051;-72
2023/04/17 02:11:36;;;;;;;0.80;0.38;;;10.80;79.80;;;;;;5040319;28;20061;-72
2023/04/17 02:14:01;;;;;;;0.77;0.22;;;10.80;79.50;;;;;;5030821;28;20063;-72
2023/04/17 02:16:27;;;;;;;0.20;0.10;;;10.80;79.20;;;;;;5035542;28;20034;-73
2023/04/17 02:18:53;;;;;;;0.10;0.10;;;11.00;78.50;;;;;;5034545;28;20033;-73
2023/04/17 02:21:20;;;;;;;1.33;0.43;;;11.10;78.40;;;;;;5037984;28;20048;-72
2023/04/17 02:23:46;;;;;;;1.33;0.57;;;11.10;78.00;;;;;;5036623;28;20048;-72
2023/04/17 02:26:12;;;;;;;0.63;0.20;;;11.00;79.70;;;;;;5037856;28;20033;-72
2023/04/17 02:28:37;;;;;;;0.55;0.25;;;10.90;79.10;;;;;;5035742;28;20116;-73
2023/04/17 02:31:07;;;;;;;0.38;0.20;;;11.00;78.40;;;;;;5030706;28;20468;-73
2023/04/17 02:33:34;;;;;;;0.70;0.15;;;10.70;80.10;;;;;;5034751;28;20029;-72
2023/04/17 02:35:59;;;;;;;0.60;0.35;;;10.50;80.70;;;;;;5038552;28;20341;-72
2023/04/17 02:38:29;;;;;;;0.43;0.10;;;10.90;78.60;;;;;;5042082;28;20114;-72
2023/04/17 02:40:55;;;;;;;2.03;0.20;;;11.00;78.30;;;;;;5042019;28;20033;-73
2023/04/17 02:43:21;;;;;;;0.00;0.00;;;10.80;79.50;;;;;;5032577;28;20033;-72
2023/04/17 02:45:47;;;;;;;0.17;0.10;;;10.90;78.90;;;;;;5028676;28;20033;-73
2023/04/17 02:48:12;;;;;;;1.30;0.20;;;11.00;78.90;;;;;;5038612;28;20026;-73
2023/04/17 02:50:38;;;;;;;0.10;0.10;;;11.00;79.50;;;;;;5032407;28;20492;-73
2023/04/17 02:53:04;;;;;;;0.85;0.30;;;11.00;78.50;;;;;;5042022;28;20067;-73
2023/04/17 02:55:29;;;;;;;0.30;0.10;;;11.10;78.10;;;;;;5034896;28;20040;-73
2023/04/17 02:57:55;;;;;;;0.98;0.30;;;11.10;78.30;;;;;;5042048;28;20650;-73
2023/04/17 03:00:21;;;;;;;0.38;0.20;;;11.10;78.40;;;;;;5044046;28;20032;-72
2023/04/17 03:02:48;;;;;;;0.43;0.20;;;11.20;78.20;;;;;;5034592;28;20625;-71
2023/04/17 03:05:15;;;;;;;0.77;0.20;;;11.20;78.10;;;;;;5027530;28;20087;-72
2023/04/17 03:07:41;;;;;;;0.28;0.10;;;11.20;77.70;;;;;;5043813;28;20045;-72
2023/04/17 03:10:08;;;;;;;0.20;0.20;;;11.10;78.10;;;;;;5038642;28;20060;-72
2023/04/17 03:12:33;;;;;;;0.30;0.10;;;11.10;78.10;;;;;;5037262;28;20170;-73
2023/04/17 03:14:59;;;;;;;0.45;0.28;;;11.10;77.90;;;;;;5024624;28;20119;-72
2023/04/17 03:17:25;;;;;;;0.20;0.10;;;11.00;79.00;;;;;;5030863;28;20485;-72
2023/04/17 03:19:51;;;;;;;0.22;0.10;;;11.00;78.70;;;;;;5026442;28;20083;-72
2023/04/17 03:22:16;;;;;;;0.30;0.20;;;11.00;78.70;;;;;;5029849;28;20664;-72
2023/04/17 03:24:42;;;;;;;0.20;0.20;;;10.90;78.90;;;;;;5025039;28;20021;-73
2023/04/17 03:27:08;;;;;;;0.73;0.30;;;10.90;80.30;;;;;;5033155;28;20169;-72
2023/04/17 03:29:34;;;;;;;0.38;0.13;;;10.80;80.00;;;;;;5038844;28;20067;-73
2023/04/17 03:31:59;;;;;;;0.63;0.20;;;10.60;80.40;;;;;;5037711;28;20039;-72
2023/04/17 03:34:25;;;;;;;0.63;0.20;;;10.60;80.50;;;;;;5034414;28;20084;-73
2023/04/17 03:36:51;;;;;;;0.30;0.30;;;10.60;81.40;;;;;;5034616;28;20513;-72
2023/04/17 03:39:16;;;;;;;0.65;0.28;;;10.60;79.50;;;;;;5035452;28;20035;-72
2023/04/17 03:41:42;;;;;;;0.10;0.00;;;10.70;79.50;;;;;;5029111;28;20149;-73
2023/04/17 03:44:08;;;;;;;0.50;0.15;;;10.50;80.80;;;;;;5038678;28;20448;-72
2023/04/17 03:46:34;;;;;;;0.85;0.10;;;10.50;79.90;;;;;;5037673;28;20040;-72
2023/04/17 03:49:00;;;;;;;0.17;0.10;;;10.40;80.60;;;;;;5031205;28;20166;-73
2023/04/17 03:51:28;;;;;;;1.77;0.13;;;10.40;81.20;;;;;;5033183;28;20033;-72
2023/04/17 03:53:54;;;;;;;0.50;0.20;;;10.20;81.60;;;;;;5026799;28;20486;-72
2023/04/17 03:56:20;;;;;;;0.20;0.10;;;10.30;80.80;;;;;;5044655;28;20040;-73
2023/04/17 03:58:46;;;;;;;0.40;0.13;;;10.30;80.70;;;;;;5034516;28;20055;-72
2023/04/17 04:01:13;;;;;;;0.50;0.17;;;10.40;80.60;;;;;;5021820;28;20033;-73
2023/04/17 04:03:39;;;;;;;0.30;0.10;;;10.40;80.50;;;;;;5024865;28;20036;-71
2023/04/17 04:06:06;;;;;;;1.23;0.60;;;10.40;80.70;;;;;;5036032;28;20492;-73
2023/04/17 04:08:32;;;;;;;0.98;0.40;;;10.30;81.20;;;;;;5035921;28;20402;-72
2023/04/17 04:10:59;;;;;;;0.90;0.28;;;10.30;81.20;;;;;;5023993;28;20037;-72
2023/04/17 04:13:25;;;;;;;0.85;0.30;;;10.30;80.80;;;;;;5028925;28;20063;-72
2023/04/17 04:15:51;;;;;;;0.20;0.10;;;10.20;81.20;;;;;;5026481;28;20028;-72
2023/04/17 04:18:17;;;;;;;0.75;0.30;;;10.20;81.00;;;;;;5028795;28;20029;-73
2023/04/17 04:20:43;;;;;;;1.52;0.20;;;10.00;82.50;;;;;;5026024;28;20666;-73
2023/04/17 04:23:09;;;;;;;0.22;0.20;;;10.10;81.70;;;;;;5036013;28;20137;-72
2023/04/17 04:25:35;;;;;;;0.20;0.20;;;10.20;81.00;;;;;;5031958;28;25525;-72
2023/04/17 04:28:01;;;;;;;0.40;0.13;;;10.30;81.30;;;;;;5029657;28;20044;-72
2023/04/17 04:30:29;;;;;;;0.28;0.10;;;10.10;81.50;;;;;;5039665;28;20037;-72
2023/04/17 04:32:55;;;;;;;1.40;0.85;;;10.20;81.30;;;;;;5029846;28;20021;-72
2023/04/17 04:35:24;;;;;;;2.88;0.30;;;10.30;81.00;;;;;;5022726;28;20060;-72
2023/04/17 04:37:53;;;;;;;1.02;0.20;;;10.20;81.00;;;;;;5031416;28;20025;-72
2023/04/17 04:40:20;;;;;;;0.90;0.10;;;10.20;81.60;;;;;;5022780;28;20030;-72
2023/04/17 04:42:48;;;;;;;0.40;0.20;;;10.20;81.10;;;;;;5022746;28;20022;-72
2023/04/17 04:45:15;;;;;;;0.20;0.10;;;10.20;81.60;;;;;;5021655;28;20037;-72
2023/04/17 04:47:41;;;;;;;0.52;0.20;;;10.30;80.70;;;;;;5022268;28;20040;-72
2023/04/17 04:50:07;;;;;;;1.73;0.25;;;10.30;81.60;;;;;;5028948;28;20057;-72
2023/04/17 04:52:33;;;;;;;0.50;0.10;;;10.30;81.50;;;;;;5023863;28;20051;-73
2023/04/17 04:55:00;;;;;;;1.08;0.40;;;10.30;81.00;;;;;;5030180;28;20456;-73
2023/04/17 04:57:26;;;;;;;0.88;0.43;;;10.30;81.50;;;;;;5026769;28;20818;-72
2023/04/17 04:59:52;;;;;;;1.10;0.30;;;10.30;81.20;;;;;;5022562;28;20128;-72
2023/04/17 05:02:17;;;;;;;0.85;0.40;;;10.40;80.90;;;;;;5021337;28;20025;-72
2023/04/17 05:04:43;;;;;;;0.55;0.30;;;10.40;80.40;;;;;;5032058;28;20463;-72
2023/04/17 05:07:09;;;;;;;0.75;0.30;;;10.40;80.90;;;;;;5035327;28;20531;-72
2023/04/17 05:09:35;;;;;;;0.75;0.20;;;10.50;80.20;;;;;;5029150;28;20580;-72
2023/04/17 05:12:01;;;;;;;0.50;0.20;;;10.50;81.10;;;;;;5036146;28;20646;-72
2023/04/17 05:14:27;;;;;;;0.57;0.28;;;10.50;80.70;;;;;;5023858;28;20139;-73
2023/04/17 05:16:54;;;;;;;0.73;0.30;;;10.50;81.40;;;;;;5025021;28;20036;-73
2023/04/17 05:19:20;;;;;;;1.10;0.20;;;10.50;80.40;;;;;;5020820;28;20409;-73
2023/04/17 05:21:45;;;;;;;1.65;0.20;;;10.50;80.70;;;;;;5034929;28;20029;-73
2023/04/17 05:24:11;;;;;;;1.15;0.38;;;10.50;80.80;;;;;;5027390;28;20060;-74
2023/04/17 05:26:37;;;;;;;2.05;0.28;;;10.50;80.80;;;;;;5022085;28;20071;-71
2023/04/17 05:29:03;;;;;;;1.00;0.43;;;10.60;80.10;;;;;;5034541;28;20151;-74
2023/04/17 05:31:28;;;;;;;0.40;0.10;;;10.60;81.20;;;;;;5032803;28;20037;-73
2023/04/17 05:33:54;;;;;;;1.42;0.50;;;10.50;81.40;;;;;;5027171;28;20036;-72
2023/04/17 05:36:21;;;;;;;1.02;0.20;;;10.70;81.70;;;;;;5030437;28;20025;-72
2023/04/17 05:38:46;;;;;;;1.90;0.30;;;10.60;81.00;;;;;;5038343;28;20025;-72
2023/04/17 05:41:12;;;;;;;0.47;0.20;;;10.60;80.20;;;;;;5024652;28;20391;-73
2023/04/17 05:43:38;;;;;;;0.65;0.25;;;10.70;80.60;;;;;;5024895;28;20117;-72
2023/04/17 05:46:03;;;;;;;0.13;0.10;;;10.70;80.00;;;;;;5026073;28;20037;-72
2023/04/17 05:48:30;;;;;;;0.60;0.20;;;10.60;81.40;;;;;;5026847;28;20029;-73
2023/04/17 05:50:55;;;;;;;0.65;0.20;;;10.60;80.10;;;;;;5037504;28;20237;-72
2023/04/17 05:53:21;;;;;;;1.38;0.43;;;10.70;80.50;;;;;;5030834;28;20502;-73
2023/04/17 05:55:47;;;;;;;0.98;0.25;;;10.70;80.20;;;;;;5034009;28;20029;-73
2023/04/17 05:58:12;;;;;;;0.20;0.10;;;10.70;80.10;;;;;;5034392;28;20084;-73
2023/04/17 06:00:40;;;;;;;2.05;0.20;;;10.80;80.00;;;;;;5034544;28;20412;-73
2023/04/17 06:03:06;;;;;;;2.13;1.00;;;10.80;79.80;;;;;;5041601;28;20022;-72
2023/04/17 06:05:31;;;;;;;0.40;0.20;;;10.80;80.10;;;;;;5035515;28;20046;-73
2023/04/17 06:07:57;;;;;;;0.40;0.30;;;10.90;80.00;;;;;;5026211;28;20056;-73
2023/04/17 06:10:22;;;;;;;0.55;0.20;;;10.90;79.90;;;;;;5025840;28;20047;-73
2023/04/17 06:12:48;;;;;;;0.77;0.25;;;10.90;80.40;;;;;;5032153;28;20517;-73
2023/04/17 06:15:14;;;;;;;0.60;0.25;;;10.90;80.10;;;;;;5030518;28;20053;-73
2023/04/17 06:17:40;;;;;;;0.80;0.32;;;10.90;80.20;;;;;;5034350;28;20025;-72
2023/04/17 06:20:10;;;;;;;1.65;0.30;;;10.90;80.20;;;;;;5025931;28;20029;-73
2023/04/17 06:22:39;;;;;;;1.10;0.50;;;11.00;80.10;;;;;;5040601;28;20040;-72
2023/04/17 06:25:06;;;;;;;0.40;0.20;;;11.00;79.50;;;;;;5031111;28;20044;-73
2023/04/17 06:27:32;;;;;;;1.10;0.43;;;11.10;78.90;;;;;;5037272;28;20033;-73
2023/04/17 06:29:59;;;;;;;0.47;0.17;;;11.10;80.10;;;;;;5044305;28;20044;-74
2023/04/17 06:32:24;;;;;;;1.02;0.30;;;11.20;80.00;;;;;;5039319;28;20424;-71
2023/04/17 06:34:50;;;;;;;1.23;0.35;;;11.20;78.90;;;;;;5034058;28;20063;-73
2023/04/17 06:37:16;;;;;;;0.13;0.03;;;11.10;79.10;;;;;;5025726;28;20032;-73
2023/04/17 06:39:41;;;;;;;3.33;0.35;;;11.20;79.80;;;;;;5026149;28;20063;-73
2023/04/17 06:42:07;;;;;;;0.73;0.30;;;11.20;79.60;;;;;;5030670;28;20095;-73
2023/04/17 06:44:33;;;;;;;0.17;0.13;;;11.30;79.30;;;;;;5024976;28;20028;-73
2023/04/17 06:47:02;;;;;;;2.22;0.40;;;11.30;79.20;;;;;;5024745;28;20036;-73
2023/04/17 06:49:31;;;;;;;2.05;0.40;;;11.30;79.10;;;;;;5026121;28;20069;-73
2023/04/17 06:51:57;;;;;;;3.22;0.40;;;11.30;79.30;;;;;;5025967;28;20029;-73
2023/04/17 06:54:23;;;;;;;1.60;0.40;;;11.30;78.80;;;;;;5029218;28;20036;-73
2023/04/17 06:56:49;;;;;;;0.20;0.20;;;11.40;79.60;;;;;;5023269;28;20029;-73
2023/04/17 06:59:14;;;;;;;0.45;0.28;;;11.40;80.80;;;;;;5035630;28;21675;-71
2023/04/17 07:01:41;;;;;;;1.40;0.50;;;11.40;80.20;;;;;;5025151;28;20418;-73
2023/04/17 07:04:07;;;;;;;0.35;0.20;;;11.40;78.90;;;;;;5039272;28;20029;-73
2023/04/17 07:06:34;;;;;;;2.75;0.50;;;11.50;79.20;;;;;;5025140;28;20039;-73
2023/04/17 07:09:03;;;;;;;0.85;0.40;;;11.50;78.70;;;;;;5026151;28;20040;-73
2023/04/17 07:11:29;;;;;;;1.60;0.68;;;11.50;79.20;;;;;;5034334;28;20029;-73
2023/04/17 07:13:55;;;;;;;1.65;0.40;;;11.50;79.30;;;;;;5025901;28;20037;-73
2023/04/17 07:16:24;;;;;;;0.65;0.35;;;11.50;79.40;;;;;;5031786;28;20029;-73
2023/04/17 07:18:50;;;;;;;1.15;0.30;;;11.50;80.00;;;;;;5034240;28;20021;-73
2023/04/17 07:21:16;;;;;;;1.52;0.63;;;11.40;79.40;;;;;;5022984;28;20032;-73
2023/04/17 07:23:42;;;;;;;1.33;0.55;;;11.50;79.30;;;;;;5030826;28;20560;-73
2023/04/17 07:26:09;;;;;;;0.52;0.40;;;11.60;79.30;;;;;;5026431;28;20041;-73
2023/04/17 07:28:38;;;;;;;0.90;0.40;;;11.70;79.90;;;;;;5032092;28;20037;-73
2023/04/17 07:31:08;;;;;;;0.88;0.22;;;11.70;79.00;;;;;;5023460;28;20041;-73
2023/04/17 07:33:37;;;;;;;0.57;0.38;;;11.80;78.80;;;;;;5033222;28;20579;-73
2023/04/17 07:36:08;;;;;;;0.85;0.32;;;11.90;79.90;;;;;;5027870;28;20474;-72
2023/04/17 07:38:33;;;;;;;1.27;0.38;;;12.00;78.00;;;;;;5031883;28;20041;-75
2023/04/17 07:40:59;;;;;;;1.02;0.40;;;12.00;78.00;;;;;;5033091;28;20033;-74
2023/04/17 07:43:26;;;;;;;3.42;0.50;;;12.00;78.20;;;;;;5032943;28;20481;-69
2023/04/17 07:45:51;;;;;;;1.60;0.60;;;12.80;79.90;;;;;;5028434;28;20486;-70
2023/04/17 07:48:18;;;;;;;1.05;0.40;;;12.80;77.60;;;;;;5029893;28;20033;-72
2023/04/17 07:50:44;;;;;;;3.80;0.38;;;12.80;78.30;;;;;;5037598;28;20033;-73
2023/04/17 07:53:10;;;;;;;2.30;0.40;;;12.70;78.70;;;;;;5029795;28;20029;-72
2023/04/17 07:55:36;;;;;;;1.80;0.40;;;12.50;77.30;;;;;;5021881;28;20048;-73
2023/04/17 07:58:05;;;;;;;2.42;0.60;;;12.50;77.90;;;;;;5039419;28;20037;-72
2023/04/17 08:00:31;;;;;;;1.42;0.47;;;12.40;77.50;;;;;;5022875;28;20509;-72
2023/04/17 08:02:57;;;;;;;0.80;0.30;;;12.40;77.50;;;;;;5037407;28;21053;-72
2023/04/17 08:05:23;;;;;;;3.10;0.47;;;12.50;78.30;;;;;;5020672;28;20025;-72
2023/04/17 08:07:49;;;;;;;1.02;0.30;;;12.50;77.10;;;;;;5038560;28;20041;-72
2023/04/17 08:10:16;;;;;;;2.92;0.90;;;12.50;76.90;;;;;;5029755;28;20045;-72
2023/04/17 08:12:41;;;;;;;2.20;0.73;;;12.60;77.80;;;;;;5032917;28;20033;-72
2023/04/17 08:15:08;;;;;;;1.15;0.40;;;12.50;76.60;;;;;;5029739;28;20036;-72
2023/04/17 08:17:34;;;;;;;0.90;0.50;;;12.50;76.60;;;;;;5027888;28;20037;-72
2023/04/17 08:20:01;;;;;;;1.75;0.65;;;12.50;76.20;;;;;;5034349;28;20083;-72
2023/04/17 08:22:27;;;;;;;1.05;0.50;;;12.50;77.50;;;;;;5020640;28;20025;-72
2023/04/17 08:24:56;;;;;;;1.83;0.60;;;12.50;76.40;;;;;;5024038;28;20388;-72
2023/04/17 08:27:23;;;;;;;2.75;0.60;;;12.50;76.80;;;;;;5036472;28;20100;-72
2023/04/17 08:29:50;;;;;;;1.27;0.50;;;12.50;76.80;;;;;;5037862;28;20073;-72
2023/04/17 08:32:16;;;;;;;2.13;0.90;;;12.60;77.60;;;;;;5039765;28;20052;-71
2023/04/17 08:34:43;;;;;;;1.88;0.90;;;12.60;76.60;;;;;;5029748;28;20479;-72
2023/04/17 08:37:09;;;;;;;4.70;0.50;;;12.70;76.10;;;;;;5041201;28;20402;-72
2023/04/17 08:39:35;;;;;;;1.70;0.40;;;12.80;75.80;;;;;;5044865;28;20100;-72
2023/04/17 08:42:05;;;;;;;2.42;0.50;;;12.90;77.00;;;;;;5038562;28;20056;-72
2023/04/17 08:44:31;;;;;;;0.95;0.30;;;13.00;77.50;;;;;;5029198;28;20408;-72
2023/04/17 08:46:57;;;;;;;1.63;0.50;;;13.10;76.80;;;;;;5045130;28;20036;-72
2023/04/17 08:49:29;;;;;;;1.45;0.63;;;13.20;76.40;;;;;;5042724;28;20035;-72
2023/04/17 08:51:55;;;;;;;2.90;0.68;;;13.30;77.30;;;;;;5025292;28;20083;-73
2023/04/17 08:54:21;;;;;;;1.73;0.60;;;13.30;76.60;;;;;;5037688;28;20033;-72
2023/04/17 08:56:47;;;;;;;3.72;1.63;;;13.40;78.00;;;;;;5040885;28;20020;-72
2023/04/17 08:59:14;;;;;;;5.35;1.70;;;13.40;77.60;;;;;;5027557;28;20056;-72
2023/04/17 09:01:59;;;;;;;0.80;0.40;;;13.50;78.30;;;;;;5033382;28;20064;-72
2023/04/17 09:04:42;;;;;;;1.88;1.05;;;13.70;77.20;;;;;;5051803;28;20021;-72
2023/04/17 09:07:10;;;;;;;1.77;0.65;;;13.70;76.80;;;;;;5056604;28;20025;-72
2023/04/17 09:09:55;;;;;;;1.30;0.50;;;13.80;76.20;;;;;;5040642;28;20043;-72
2023/04/17 09:12:24;;;;;;;;;;;13.80;75.90;;;;;;5051400;28;20071;-72
2023/04/17 09:14:50;;;;;;;0.63;0.35;;;14.00;76.70;;;;;;5038613;28;19999;-72
2023/04/17 09:17:17;;;;;;;0.80;0.40;;;13.90;76.70;;;;;;5032052;28;20029;-72
2023/04/17 09:20:11;;;;;;;0.98;0.40;;;13.80;75.00;;;;;;5036521;28;20033;-72
2023/04/17 09:22:41;;;;;;;1.65;0.40;;;13.90;76.40;;;;;;5027578;28;20029;-72
2023/04/17 09:25:21;;;;;;;1.05;0.60;;;13.90;75.10;;;;;;5027708;28;20515;-72
2023/04/17 09:27:47;;;;;;;1.73;0.68;;;14.10;74.60;;;;;;5028089;28;20029;-72
2023/04/17 09:30:13;;;;;;;1.30;0.73;;;14.20;75.80;;;;;;5028734;28;20052;-73
2023/04/17 09:32:39;;;;;;;0.95;0.45;;;14.20;74.90;;;;;;5028941;28;20499;-72
2023/04/17 09:35:05;;;;;;;1.20;0.40;;;14.40;74.30;;;;;;5036265;28;20371;-72
2023/04/17 09:37:49;;;;;;;1.95;1.00;;;14.50;74.40;;;;;;5039409;28;20017;-72
2023/04/17 09:40:15;;;;;;;1.73;0.52;;;14.50;75.30;;;;;;5029367;28;20029;-72
2023/04/17 09:43:02;;;;;;;0.95;0.40;;;14.50;75.40;;;;;;5033082;28;20025;-72
2023/04/17 09:45:35;;;;;;;1.75;0.65;;;14.50;75.40;;;;;;5036395;28;20495;-72
2023/04/17 09:48:05;;;;;;;1.00;0.45;;;14.50;75.80;;;;;;5029609;28;20032;-72
2023/04/17 09:50:32;;;;;;;1.40;0.50;;;14.60;77.40;;;;;;5029424;28;20052;-72
2023/04/17 09:52:57;;;;;;;0.75;0.50;;;14.70;75.60;;;;;;5031143;28;20029;-72
2023/04/17 09:55:25;;;;;;;0.52;0.30;;;14.80;75.90;;;;;;5028181;28;20044;-72
2023/04/17 09:57:53;;;;;;;0.98;0.38;;;14.90;74.00;;;;;;5029975;28;20080;-72
2023/04/17 10:00:20;;;;;;;1.88;0.73;;;14.90;74.00;;;;;;5030760;28;20025;-72
2023/04/17 10:02:50;;;;;;;2.95;0.40;;;15.20;76.80;;;;;;5033379;28;20021;-72
2023/04/17 10:05:20;;;;;;;0.82;0.43;;;15.30;74.90;;;;;;5034814;28;20029;-72
2023/04/17 10:07:46;;;;;;;1.20;0.52;;;15.30;73.80;;;;;;5032215;28;20541;-72
2023/04/17 10:10:31;;;;;;;1.50;0.60;;;15.30;72.20;;;;;;5031602;28;20043;-72
2023/04/17 10:12:59;;;;;;;1.23;0.22;;;15.50;73.60;;;;;;5030268;28;20123;-72
2023/04/17 10:15:27;;;;;;;1.25;0.50;;;15.60;73.30;;;;;;5031347;28;20029;-72
2023/04/17 10:17:55;;;;;;;3.33;1.35;;;15.90;74.40;;;;;;5036893;28;20025;-72
2023/04/17 10:20:23;;;;;;;1.95;0.80;;;15.90;72.10;;;;;;5032507;28;20084;-73
2023/04/17 10:22:55;;;;;;;1.50;0.40;;;15.90;75.50;;;;;;5034400;28;20029;-73
2023/04/17 10:25:21;;;;;;;1.85;0.45;;;15.80;75.10;;;;;;5027450;28;20034;-72
2023/04/17 10:28:07;;;;;;;1.23;0.70;;;15.80;75.40;;;;;;5031256;28;20028;-72
2023/04/17 10:30:54;;;;;;;4.63;1.33;;;15.60;73.90;;;;;;5037570;28;20053;-72
2023/04/17 10:33:24;;;;;;;1.40;0.55;;;15.60;75.50;;;;;;5039873;28;20086;-72
2023/04/17 10:35:51;;;;;;;2.40;0.75;;;15.40;74.40;;;;;;5027192;28;20033;-72
2023/04/17 10:38:31;;;;;;;3.63;0.60;;;15.30;75.70;;;;;;5028538;28;20029;-72
2023/04/17 10:41:01;;;;;;;4.30;0.75;;;15.50;76.30;;;;;;5028492;28;20368;-72
2023/04/17 10:43:27;;;;;;;3.55;0.63;;;15.50;75.50;;;;;;5034752;28;20036;-73
2023/04/17 10:46:09;;;;;;;1.20;0.57;;;15.60;75.20;;;;;;5030490;28;20021;-73
2023/04/17 10:48:43;;;;;;;2.53;0.70;;;15.40;74.60;;;;;;5026241;28;20064;-72
2023/04/17 10:51:27;;;;;;;1.10;0.70;;;15.40;74.70;;;;;;5032997;28;20041;-73
2023/04/17 10:53:57;;;;;;;5.63;1.48;;;15.50;73.70;;;;;;5026803;28;20424;-72
2023/04/17 10:56:37;;;;;;;4.95;1.70;;;15.40;74.90;;;;;;5025191;28;20071;-72
2023/04/17 10:59:10;;;;;;;2.13;0.90;;;15.80;75.00;;;;;;5027786;28;20060;-72
2023/04/17 11:01:36;;;;;;;1.13;0.52;;;15.90;72.20;;;;;;5026074;28;20120;-73
2023/04/17 11:04:03;;;;;;;8.70;2.80;;;16.10;71.60;;;;;;5023829;28;20188;-73
2023/04/17 11:06:35;;;;;;;0.93;0.63;;;16.10;72.50;;;;;;5023427;28;20034;-73
2023/04/17 11:09:05;;;;;;;0.77;0.40;;;16.10;70.60;;;;;;5025102;28;20112;-72
2023/04/17 11:11:42;;;;;;;0.98;0.50;;;16.30;71.60;;;;;;5030568;28;20448;-73
2023/04/17 11:14:09;;;;;;;0.73;0.30;;;16.40;70.50;;;;;;5028894;28;20033;-73
2023/04/17 11:16:37;;;;;;;2.25;0.35;;;16.40;70.00;;;;;;5029863;28;20434;-72
2023/04/17 11:19:05;;;;;;;1.67;0.80;;;16.50;69.10;;;;;;5039207;28;20519;-72
2023/04/17 11:21:31;;;;;;;1.23;0.40;;;16.70;71.00;;;;;;5040662;28;20100;-72
2023/04/17 11:24:01;;;;;;;2.67;0.40;;;16.80;70.50;;;;;;5035986;28;20479;-72
2023/04/17 11:26:27;;;;;;;30.52;18.38;;;16.80;69.40;;;;;;5025076;28;20479;-73
2023/04/17 11:28:52;;;;;;;16.88;13.13;;;16.80;71.00;;;;;;5034863;28;20079;-73
2023/04/17 11:31:18;;;;;;;6.22;5.63;;;16.90;71.80;;;;;;5039124;28;20029;-73
2023/04/17 11:33:46;;;;;;;3.97;3.45;;;17.20;72.80;;;;;;5031784;28;20096;-73
2023/04/17 11:36:12;;;;;;;1.40;0.68;;;17.80;71.50;;;;;;5028602;28;20082;-72
2023/04/17 11:38:46;;;;;;;3.45;1.05;;;17.60;69.90;;;;;;5026819;28;20030;-73
2023/04/17 11:41:12;;;;;;;3.13;1.40;;;17.80;72.40;;;;;;5032759;28;20028;-72
2023/04/17 11:43:38;;;;;;;4.10;1.23;;;18.10;72.20;;;;;;5030332;28;20029;-73
2023/04/17 11:46:05;;;;;;;2.83;0.70;;;18.40;71.80;;;;;;5036826;28;20033;-73
2023/04/17 11:48:33;;;;;;;1.05;0.35;;;18.50;72.00;;;;;;5034417;28;20490;-73
2023/04/17 11:51:02;;;;;;;1.48;0.50;;;18.20;70.10;;;;;;5031496;28;20041;-73
2023/04/17 11:53:29;;;;;;;6.95;1.52;;;18.10;68.00;;;;;;5031320;28;20511;-73
2023/04/17 11:56:18;;;;;;;2.83;0.65;;;18.10;69.90;;;;;;5030825;28;20094;-73
2023/04/17 11:58:48;;;;;;;1.73;0.50;;;18.10;69.80;;;;;;5032092;28;20033;-73
2023/04/17 12:01:15;;;;;;;1.35;0.63;;;17.70;68.00;;;;;;5034509;28;20035;-73
2023/04/17 12:03:41;;;;;;;0.75;0.40;;;17.60;67.90;;;;;;5031920;28;20049;-73
2023/04/17 12:06:07;;;;;;;1.40;0.50;;;17.60;67.80;;;;;;5030624;28;20655;-73
2023/04/17 12:08:53;;;;;;;0.38;0.20;;;17.70;68.30;;;;;;5027112;28;20044;-73
2023/04/17 12:11:23;;;;;;;3.70;0.57;;;17.90;68.80;;;;;;5031504;28;20048;-73
2023/04/17 12:13:54;;;;;;;0.85;0.47;;;18.10;68.10;;;;;;5028621;28;20033;-72
2023/04/17 12:16:20;;;;;;;2.58;0.60;;;18.00;68.40;;;;;;5031948;28;20537;-73
2023/04/17 12:18:45;;;;;;;1.05;0.40;;;18.10;69.40;;;;;;5028060;28;20057;-72
2023/04/17 12:21:12;;;;;;;1.23;0.60;;;18.20;70.70;;;;;;5027672;28;20087;-73
2023/04/17 12:23:38;;;;;;;1.10;0.73;;;18.00;69.60;;;;;;5030719;28;20056;-72
2023/04/17 12:26:04;;;;;;;2.70;0.52;;;18.00;68.70;;;;;;5031352;28;20446;-73
2023/04/17 12:28:29;;;;;;;1.25;0.40;;;18.00;68.40;;;;;;5027044;28;20029;-73
2023/04/17 12:30:55;;;;;;;1.98;0.70;;;18.10;70.80;;;;;;5027195;28;20087;-73
2023/04/17 12:33:21;;;;;;;2.05;0.50;;;18.20;68.10;;;;;;5031287;28;20036;-73
2023/04/17 12:35:47;;;;;;;3.42;0.40;;;18.20;68.40;;;;;;5033203;28;20029;-73
2023/04/17 12:38:12;;;;;;;1.33;0.50;;;18.20;67.80;;;;;;5033523;28;20068;-73
2023/04/17 12:40:42;;;;;;;1.13;0.55;;;18.10;66.60;;;;;;5034853;28;20083;-73
2023/04/17 12:43:09;;;;;;;1.75;0.65;;;18.20;67.50;;;;;;5035751;28;20021;-72
2023/04/17 12:45:36;;;;;;;1.42;0.38;;;18.00;67.80;;;;;;5024188;28;20503;-73
2023/04/17 12:48:02;;;;;;;1.88;0.40;;;18.20;68.30;;;;;;5026414;28;20021;-73
2023/04/17 12:50:28;;;;;;;2.88;0.55;;;18.30;67.80;;;;;;5025344;28;20030;-73